sensor_id;sensor_type;location;lat;lon;timestamp;P1;durP1;ratioP1;P2;durP2;ratioP2
14797;SDS011;7490;63.708;20.368;2024-03-02T00:02:24;40.63;;;12.83;;
14797;SDS011;7490;63.708;20.368;2024-03-02T00:04:50;42.97;;;13.13;;
14797;SDS011;7490;63.708;20.368;2024-03-02T00:07:16;51.80;;;14.10;;
14797;SDS011;7490;63.708;20.368;2024-03-02T00:09:42;35.10;;;10.83;;
14797;SDS011;7490;63.708;20.368;2024-03-02T00:12:10;42.60;;;12.27;;
14797;SDS011;7490;63.708;20.368;2024-03-02T00:14:40;57.97;;;15.67;;
14797;SDS011;7490;63.708;20.368;2024-03-02T00:17:08;49.87;;;13.23;;
14797;SDS011;7490;63.708;20.368;2024-03-02T00:19:44;51.43;;;13.30;;
14797;SDS011;7490;63.708;20.368;2024-03-02T00:22:10;51.93;;;12.57;;
14797;SDS011;7490;63.708;20.368;2024-03-02T00:24:35;59.37;;;14.63;;
14797;SDS011;7490;63.708;20.368;2024-03-02T00:27:01;40.30;;;12.33;;
14797;SDS011;7490;63.708;20.368;2024-03-02T00:29:29;52.83;;;14.17;;
14797;SDS011;7490;63.708;20.368;2024-03-02T00:31:55;38.47;;;10.73;;
14797;SDS011;7490;63.708;20.368;2024-03-02T00:34:21;39.83;;;11.40;;
14797;SDS011;7490;63.708;20.368;2024-03-02T00:36:47;48.00;;;13.10;;
14797;SDS011;7490;63.708;20.368;2024-03-02T00:39:14;35.73;;;12.43;;
14797;SDS011;7490;63.708;20.368;2024-03-02T00:41:42;36.17;;;12.43;;
14797;SDS011;7490;63.708;20.368;2024-03-02T00:44:09;34.40;;;10.23;;
14797;SDS011;7490;63.708;20.368;2024-03-02T00:46:41;42.77;;;12.60;;
14797;SDS011;7490;63.708;20.368;2024-03-02T00:51:46;40.23;;;11.87;;
14797;SDS011;7490;63.708;20.368;2024-03-02T00:54:20;35.80;;;10.17;;
14797;SDS011;7490;63.708;20.368;2024-03-02T00:56:48;29.13;;;9.30;;
14797;SDS011;7490;63.708;20.368;2024-03-02T00:59:14;37.23;;;11.90;;
14797;SDS011;7490;63.708;20.368;2024-03-02T01:01:40;31.63;;;11.23;;
14797;SDS011;7490;63.708;20.368;2024-03-02T01:04:07;40.40;;;12.30;;
14797;SDS011;7490;63.708;20.368;2024-03-02T01:06:33;32.13;;;10.47;;
14797;SDS011;7490;63.708;20.368;2024-03-02T01:08:59;35.30;;;10.50;;
14797;SDS011;7490;63.708;20.368;2024-03-02T01:11:25;33.23;;;10.73;;
14797;SDS011;7490;63.708;20.368;2024-03-02T01:13:51;40.60;;;10.97;;
14797;SDS011;7490;63.708;20.368;2024-03-02T01:16:17;33.97;;;12.03;;
14797;SDS011;7490;63.708;20.368;2024-03-02T01:18:42;41.93;;;11.73;;
14797;SDS011;7490;63.708;20.368;2024-03-02T01:21:08;36.00;;;11.43;;
14797;SDS011;7490;63.708;20.368;2024-03-02T01:23:34;32.83;;;11.60;;
14797;SDS011;7490;63.708;20.368;2024-03-02T01:26:00;42.70;;;11.73;;
14797;SDS011;7490;63.708;20.368;2024-03-02T01:28:25;37.13;;;10.90;;
14797;SDS011;7490;63.708;20.368;2024-03-02T01:30:51;41.13;;;11.50;;
14797;SDS011;7490;63.708;20.368;2024-03-02T01:33:17;38.07;;;10.60;;
14797;SDS011;7490;63.708;20.368;2024-03-02T01:35:44;43.07;;;11.83;;
14797;SDS011;7490;63.708;20.368;2024-03-02T01:38:09;58.63;;;13.87;;
14797;SDS011;7490;63.708;20.368;2024-03-02T01:40:35;55.73;;;12.60;;
14797;SDS011;7490;63.708;20.368;2024-03-02T01:43:02;59.67;;;13.07;;
14797;SDS011;7490;63.708;20.368;2024-03-02T01:45:29;75.57;;;13.77;;
14797;SDS011;7490;63.708;20.368;2024-03-02T01:47:55;58.73;;;10.77;;
14797;SDS011;7490;63.708;20.368;2024-03-02T01:50:28;69.80;;;14.43;;
14797;SDS011;7490;63.708;20.368;2024-03-02T01:52:57;63.10;;;11.90;;
14797;SDS011;7490;63.708;20.368;2024-03-02T01:55:23;70.37;;;13.77;;
14797;SDS011;7490;63.708;20.368;2024-03-02T01:57:50;52.30;;;12.33;;
14797;SDS011;7490;63.708;20.368;2024-03-02T02:00:17;61.97;;;12.80;;
14797;SDS011;7490;63.708;20.368;2024-03-02T02:02:46;62.43;;;13.10;;
14797;SDS011;7490;63.708;20.368;2024-03-02T02:05:16;59.40;;;12.73;;
14797;SDS011;7490;63.708;20.368;2024-03-02T02:07:42;86.90;;;14.30;;
14797;SDS011;7490;63.708;20.368;2024-03-02T02:10:09;73.80;;;13.73;;
14797;SDS011;7490;63.708;20.368;2024-03-02T02:12:36;73.70;;;13.57;;
14797;SDS011;7490;63.708;20.368;2024-03-02T02:15:07;54.20;;;12.13;;
14797;SDS011;7490;63.708;20.368;2024-03-02T02:17:50;51.00;;;12.27;;
14797;SDS011;7490;63.708;20.368;2024-03-02T02:20:16;54.90;;;12.20;;
14797;SDS011;7490;63.708;20.368;2024-03-02T02:22:52;65.30;;;14.87;;
14797;SDS011;7490;63.708;20.368;2024-03-02T02:25:21;80.93;;;14.13;;
14797;SDS011;7490;63.708;20.368;2024-03-02T02:27:46;67.53;;;12.07;;
14797;SDS011;7490;63.708;20.368;2024-03-02T02:30:12;63.30;;;12.67;;
14797;SDS011;7490;63.708;20.368;2024-03-02T02:32:38;96.30;;;14.67;;
14797;SDS011;7490;63.708;20.368;2024-03-02T02:35:04;102.03;;;14.63;;
14797;SDS011;7490;63.708;20.368;2024-03-02T02:37:30;100.97;;;15.70;;
14797;SDS011;7490;63.708;20.368;2024-03-02T02:39:56;113.27;;;15.37;;
14797;SDS011;7490;63.708;20.368;2024-03-02T02:42:21;62.00;;;12.80;;
14797;SDS011;7490;63.708;20.368;2024-03-02T02:44:47;74.93;;;14.97;;
14797;SDS011;7490;63.708;20.368;2024-03-02T02:47:13;104.90;;;15.87;;
14797;SDS011;7490;63.708;20.368;2024-03-02T02:49:38;91.77;;;15.40;;
14797;SDS011;7490;63.708;20.368;2024-03-02T02:52:04;89.70;;;14.23;;
14797;SDS011;7490;63.708;20.368;2024-03-02T02:54:32;80.83;;;14.00;;
14797;SDS011;7490;63.708;20.368;2024-03-02T02:56:58;72.57;;;14.17;;
14797;SDS011;7490;63.708;20.368;2024-03-02T02:59:24;63.57;;;13.33;;
14797;SDS011;7490;63.708;20.368;2024-03-02T03:01:51;64.63;;;13.47;;
14797;SDS011;7490;63.708;20.368;2024-03-02T03:04:19;54.30;;;13.47;;
14797;SDS011;7490;63.708;20.368;2024-03-02T03:06:48;75.00;;;14.47;;
14797;SDS011;7490;63.708;20.368;2024-03-02T03:09:16;50.97;;;12.73;;
14797;SDS011;7490;63.708;20.368;2024-03-02T03:11:42;62.70;;;14.07;;
14797;SDS011;7490;63.708;20.368;2024-03-02T03:14:08;52.10;;;13.07;;
14797;SDS011;7490;63.708;20.368;2024-03-02T03:16:34;59.83;;;12.37;;
14797;SDS011;7490;63.708;20.368;2024-03-02T03:18:59;56.00;;;12.73;;
14797;SDS011;7490;63.708;20.368;2024-03-02T03:21:25;60.07;;;13.03;;
14797;SDS011;7490;63.708;20.368;2024-03-02T03:23:51;60.73;;;13.63;;
14797;SDS011;7490;63.708;20.368;2024-03-02T03:26:16;60.60;;;13.50;;
14797;SDS011;7490;63.708;20.368;2024-03-02T03:28:42;59.57;;;12.67;;
14797;SDS011;7490;63.708;20.368;2024-03-02T03:31:08;65.20;;;13.40;;
14797;SDS011;7490;63.708;20.368;2024-03-02T03:33:33;46.80;;;12.57;;
14797;SDS011;7490;63.708;20.368;2024-03-02T03:35:59;63.43;;;13.37;;
14797;SDS011;7490;63.708;20.368;2024-03-02T03:38:25;67.83;;;13.47;;
14797;SDS011;7490;63.708;20.368;2024-03-02T03:40:51;42.10;;;10.77;;
14797;SDS011;7490;63.708;20.368;2024-03-02T03:43:16;58.17;;;12.00;;
14797;SDS011;7490;63.708;20.368;2024-03-02T03:45:42;50.13;;;12.20;;
14797;SDS011;7490;63.708;20.368;2024-03-02T03:48:08;46.03;;;12.30;;
14797;SDS011;7490;63.708;20.368;2024-03-02T03:50:34;50.83;;;12.03;;
14797;SDS011;7490;63.708;20.368;2024-03-02T03:52:59;44.97;;;11.87;;
14797;SDS011;7490;63.708;20.368;2024-03-02T03:55:25;42.57;;;9.73;;
14797;SDS011;7490;63.708;20.368;2024-03-02T03:57:51;37.73;;;11.13;;
14797;SDS011;7490;63.708;20.368;2024-03-02T04:00:16;47.37;;;12.37;;
14797;SDS011;7490;63.708;20.368;2024-03-02T04:02:42;33.43;;;10.10;;
14797;SDS011;7490;63.708;20.368;2024-03-02T04:05:08;42.73;;;11.30;;
14797;SDS011;7490;63.708;20.368;2024-03-02T04:07:36;42.50;;;12.00;;
14797;SDS011;7490;63.708;20.368;2024-03-02T04:10:09;37.60;;;11.10;;
14797;SDS011;7490;63.708;20.368;2024-03-02T04:12:36;44.70;;;11.53;;
14797;SDS011;7490;63.708;20.368;2024-03-02T04:15:02;40.40;;;10.77;;
14797;SDS011;7490;63.708;20.368;2024-03-02T04:17:32;44.03;;;10.90;;
14797;SDS011;7490;63.708;20.368;2024-03-02T04:19:59;53.67;;;12.80;;
14797;SDS011;7490;63.708;20.368;2024-03-02T04:22:26;57.50;;;12.00;;
14797;SDS011;7490;63.708;20.368;2024-03-02T04:24:52;61.97;;;12.97;;
14797;SDS011;7490;63.708;20.368;2024-03-02T04:27:18;46.53;;;11.60;;
14797;SDS011;7490;63.708;20.368;2024-03-02T04:29:44;67.63;;;13.60;;
14797;SDS011;7490;63.708;20.368;2024-03-02T04:32:09;64.80;;;13.80;;
14797;SDS011;7490;63.708;20.368;2024-03-02T04:34:35;49.37;;;12.13;;
14797;SDS011;7490;63.708;20.368;2024-03-02T04:37:00;63.57;;;13.63;;
14797;SDS011;7490;63.708;20.368;2024-03-02T04:39:26;66.47;;;14.83;;
14797;SDS011;7490;63.708;20.368;2024-03-02T04:41:52;55.50;;;13.03;;
14797;SDS011;7490;63.708;20.368;2024-03-02T04:44:18;46.40;;;12.40;;
14797;SDS011;7490;63.708;20.368;2024-03-02T04:46:43;60.17;;;13.10;;
14797;SDS011;7490;63.708;20.368;2024-03-02T04:49:10;63.57;;;13.93;;
14797;SDS011;7490;63.708;20.368;2024-03-02T04:51:39;61.70;;;14.43;;
14797;SDS011;7490;63.708;20.368;2024-03-02T04:54:04;82.30;;;15.07;;
14797;SDS011;7490;63.708;20.368;2024-03-02T04:56:30;68.17;;;15.07;;
14797;SDS011;7490;63.708;20.368;2024-03-02T04:59:09;64.20;;;14.57;;
14797;SDS011;7490;63.708;20.368;2024-03-02T05:01:35;69.93;;;14.47;;
14797;SDS011;7490;63.708;20.368;2024-03-02T05:04:04;54.03;;;13.37;;
14797;SDS011;7490;63.708;20.368;2024-03-02T05:06:30;75.33;;;15.10;;
14797;SDS011;7490;63.708;20.368;2024-03-02T05:08:58;84.30;;;16.87;;
14797;SDS011;7490;63.708;20.368;2024-03-02T05:11:29;56.20;;;14.43;;
14797;SDS011;7490;63.708;20.368;2024-03-02T05:14:04;59.27;;;13.47;;
14797;SDS011;7490;63.708;20.368;2024-03-02T05:16:37;51.03;;;13.13;;
14797;SDS011;7490;63.708;20.368;2024-03-02T05:19:03;60.23;;;13.40;;
14797;SDS011;7490;63.708;20.368;2024-03-02T05:21:31;66.80;;;13.93;;
14797;SDS011;7490;63.708;20.368;2024-03-02T05:23:58;48.73;;;13.37;;
14797;SDS011;7490;63.708;20.368;2024-03-02T05:26:30;54.13;;;14.23;;
14797;SDS011;7490;63.708;20.368;2024-03-02T05:28:56;67.40;;;14.47;;
14797;SDS011;7490;63.708;20.368;2024-03-02T05:31:27;47.13;;;12.17;;
14797;SDS011;7490;63.708;20.368;2024-03-02T05:33:53;53.57;;;13.83;;
14797;SDS011;7490;63.708;20.368;2024-03-02T05:36:19;58.87;;;14.27;;
14797;SDS011;7490;63.708;20.368;2024-03-02T05:38:48;62.77;;;14.73;;
14797;SDS011;7490;63.708;20.368;2024-03-02T05:41:14;64.03;;;14.30;;
14797;SDS011;7490;63.708;20.368;2024-03-02T05:43:42;65.97;;;14.97;;
14797;SDS011;7490;63.708;20.368;2024-03-02T05:46:08;65.47;;;14.77;;
14797;SDS011;7490;63.708;20.368;2024-03-02T05:48:34;76.70;;;16.10;;
14797;SDS011;7490;63.708;20.368;2024-03-02T05:50:59;79.50;;;15.47;;
14797;SDS011;7490;63.708;20.368;2024-03-02T05:53:25;84.23;;;16.23;;
14797;SDS011;7490;63.708;20.368;2024-03-02T05:55:51;95.60;;;15.97;;
14797;SDS011;7490;63.708;20.368;2024-03-02T05:58:20;95.00;;;17.27;;
14797;SDS011;7490;63.708;20.368;2024-03-02T06:01:06;124.50;;;19.57;;
14797;SDS011;7490;63.708;20.368;2024-03-02T06:03:32;105.20;;;15.93;;
14797;SDS011;7490;63.708;20.368;2024-03-02T06:05:57;113.63;;;16.13;;
14797;SDS011;7490;63.708;20.368;2024-03-02T06:08:23;119.87;;;16.80;;
14797;SDS011;7490;63.708;20.368;2024-03-02T06:10:49;150.27;;;18.47;;
14797;SDS011;7490;63.708;20.368;2024-03-02T06:13:15;122.27;;;15.77;;
14797;SDS011;7490;63.708;20.368;2024-03-02T06:15:40;161.83;;;20.97;;
14797;SDS011;7490;63.708;20.368;2024-03-02T06:18:06;180.13;;;20.73;;
14797;SDS011;7490;63.708;20.368;2024-03-02T06:20:32;174.87;;;21.90;;
14797;SDS011;7490;63.708;20.368;2024-03-02T06:22:58;199.90;;;22.07;;
14797;SDS011;7490;63.708;20.368;2024-03-02T06:25:24;159.03;;;20.77;;
14797;SDS011;7490;63.708;20.368;2024-03-02T06:27:50;163.57;;;19.83;;
14797;SDS011;7490;63.708;20.368;2024-03-02T06:30:15;152.03;;;18.60;;
14797;SDS011;7490;63.708;20.368;2024-03-02T06:32:41;115.70;;;18.70;;
14797;SDS011;7490;63.708;20.368;2024-03-02T06:35:07;147.90;;;20.13;;
14797;SDS011;7490;63.708;20.368;2024-03-02T06:37:35;96.73;;;17.33;;
14797;SDS011;7490;63.708;20.368;2024-03-02T06:40:02;151.10;;;19.60;;
14797;SDS011;7490;63.708;20.368;2024-03-02T06:42:27;119.47;;;18.00;;
14797;SDS011;7490;63.708;20.368;2024-03-02T06:44:58;109.23;;;18.90;;
14797;SDS011;7490;63.708;20.368;2024-03-02T06:47:24;114.80;;;17.60;;
14797;SDS011;7490;63.708;20.368;2024-03-02T06:49:49;88.70;;;16.83;;
14797;SDS011;7490;63.708;20.368;2024-03-02T06:52:15;105.70;;;16.37;;
14797;SDS011;7490;63.708;20.368;2024-03-02T06:54:41;95.30;;;17.03;;
14797;SDS011;7490;63.708;20.368;2024-03-02T06:57:07;91.07;;;16.37;;
14797;SDS011;7490;63.708;20.368;2024-03-02T06:59:32;93.83;;;17.37;;
14797;SDS011;7490;63.708;20.368;2024-03-02T07:01:58;109.50;;;17.07;;
14797;SDS011;7490;63.708;20.368;2024-03-02T07:04:24;90.93;;;17.27;;
14797;SDS011;7490;63.708;20.368;2024-03-02T07:06:50;70.93;;;15.67;;
14797;SDS011;7490;63.708;20.368;2024-03-02T07:09:20;74.47;;;15.00;;
14797;SDS011;7490;63.708;20.368;2024-03-02T07:11:48;73.83;;;15.47;;
14797;SDS011;7490;63.708;20.368;2024-03-02T07:14:14;76.33;;;15.27;;
14797;SDS011;7490;63.708;20.368;2024-03-02T07:16:40;61.80;;;13.87;;
14797;SDS011;7490;63.708;20.368;2024-03-02T07:19:08;64.30;;;15.20;;
14797;SDS011;7490;63.708;20.368;2024-03-02T07:21:34;70.40;;;15.57;;
14797;SDS011;7490;63.708;20.368;2024-03-02T07:23:59;66.13;;;16.03;;
14797;SDS011;7490;63.708;20.368;2024-03-02T07:26:28;59.00;;;14.87;;
14797;SDS011;7490;63.708;20.368;2024-03-02T07:28:56;63.00;;;15.03;;
14797;SDS011;7490;63.708;20.368;2024-03-02T07:31:22;57.70;;;13.83;;
14797;SDS011;7490;63.708;20.368;2024-03-02T07:33:47;57.43;;;12.97;;
14797;SDS011;7490;63.708;20.368;2024-03-02T07:36:13;55.20;;;13.90;;
14797;SDS011;7490;63.708;20.368;2024-03-02T07:38:39;60.70;;;15.37;;
14797;SDS011;7490;63.708;20.368;2024-03-02T07:41:05;68.13;;;14.87;;
14797;SDS011;7490;63.708;20.368;2024-03-02T07:43:32;53.37;;;11.77;;
14797;SDS011;7490;63.708;20.368;2024-03-02T07:45:58;75.97;;;14.43;;
14797;SDS011;7490;63.708;20.368;2024-03-02T07:48:24;68.40;;;14.90;;
14797;SDS011;7490;63.708;20.368;2024-03-02T07:50:50;67.10;;;14.57;;
14797;SDS011;7490;63.708;20.368;2024-03-02T07:53:16;68.50;;;15.40;;
14797;SDS011;7490;63.708;20.368;2024-03-02T07:55:42;71.10;;;14.83;;
14797;SDS011;7490;63.708;20.368;2024-03-02T07:58:07;55.67;;;13.70;;
14797;SDS011;7490;63.708;20.368;2024-03-02T08:00:33;68.57;;;14.90;;
14797;SDS011;7490;63.708;20.368;2024-03-02T08:03:00;63.43;;;14.03;;
14797;SDS011;7490;63.708;20.368;2024-03-02T08:05:26;63.33;;;13.83;;
14797;SDS011;7490;63.708;20.368;2024-03-02T08:07:52;71.83;;;13.30;;
14797;SDS011;7490;63.708;20.368;2024-03-02T08:10:18;64.97;;;16.00;;
14797;SDS011;7490;63.708;20.368;2024-03-02T08:12:44;60.90;;;14.90;;
14797;SDS011;7490;63.708;20.368;2024-03-02T08:15:10;64.37;;;15.17;;
14797;SDS011;7490;63.708;20.368;2024-03-02T08:17:37;63.20;;;14.07;;
14797;SDS011;7490;63.708;20.368;2024-03-02T08:20:09;51.20;;;13.27;;
14797;SDS011;7490;63.708;20.368;2024-03-02T08:22:36;53.00;;;13.80;;
14797;SDS011;7490;63.708;20.368;2024-03-02T08:25:02;57.27;;;14.27;;
14797;SDS011;7490;63.708;20.368;2024-03-02T08:27:28;39.23;;;11.93;;
14797;SDS011;7490;63.708;20.368;2024-03-02T08:29:54;50.47;;;14.03;;
14797;SDS011;7490;63.708;20.368;2024-03-02T08:32:19;50.70;;;13.30;;
14797;SDS011;7490;63.708;20.368;2024-03-02T08:34:45;49.47;;;13.70;;
14797;SDS011;7490;63.708;20.368;2024-03-02T08:37:11;53.07;;;13.00;;
14797;SDS011;7490;63.708;20.368;2024-03-02T08:39:36;54.40;;;14.10;;
14797;SDS011;7490;63.708;20.368;2024-03-02T08:42:02;62.23;;;15.37;;
14797;SDS011;7490;63.708;20.368;2024-03-02T08:44:29;47.27;;;13.83;;
14797;SDS011;7490;63.708;20.368;2024-03-02T08:46:55;44.57;;;13.40;;
14797;SDS011;7490;63.708;20.368;2024-03-02T08:49:21;46.93;;;14.87;;
14797;SDS011;7490;63.708;20.368;2024-03-02T08:51:47;47.93;;;14.53;;
14797;SDS011;7490;63.708;20.368;2024-03-02T08:54:19;48.77;;;13.77;;
14797;SDS011;7490;63.708;20.368;2024-03-02T08:56:46;43.97;;;11.93;;
14797;SDS011;7490;63.708;20.368;2024-03-02T08:59:13;43.63;;;13.67;;
14797;SDS011;7490;63.708;20.368;2024-03-02T09:01:38;43.93;;;13.13;;
14797;SDS011;7490;63.708;20.368;2024-03-02T09:04:06;42.83;;;12.60;;
14797;SDS011;7490;63.708;20.368;2024-03-02T09:06:34;50.17;;;14.43;;
14797;SDS011;7490;63.708;20.368;2024-03-02T09:08:59;51.10;;;14.07;;
14797;SDS011;7490;63.708;20.368;2024-03-02T09:11:25;49.33;;;14.00;;
14797;SDS011;7490;63.708;20.368;2024-03-02T09:13:51;48.43;;;13.40;;
14797;SDS011;7490;63.708;20.368;2024-03-02T09:16:18;43.37;;;13.10;;
14797;SDS011;7490;63.708;20.368;2024-03-02T09:18:44;43.57;;;12.93;;
14797;SDS011;7490;63.708;20.368;2024-03-02T09:21:11;53.33;;;13.23;;
14797;SDS011;7490;63.708;20.368;2024-03-02T09:23:36;44.73;;;12.77;;
14797;SDS011;7490;63.708;20.368;2024-03-02T09:26:03;41.30;;;12.77;;
14797;SDS011;7490;63.708;20.368;2024-03-02T09:28:29;43.43;;;11.43;;
14797;SDS011;7490;63.708;20.368;2024-03-02T09:30:54;51.27;;;12.20;;
14797;SDS011;7490;63.708;20.368;2024-03-02T09:33:20;41.33;;;12.00;;
14797;SDS011;7490;63.708;20.368;2024-03-02T09:35:46;43.97;;;12.53;;
14797;SDS011;7490;63.708;20.368;2024-03-02T09:38:13;43.03;;;13.30;;
14797;SDS011;7490;63.708;20.368;2024-03-02T09:40:40;59.70;;;11.53;;
14797;SDS011;7490;63.708;20.368;2024-03-02T09:43:07;56.90;;;12.50;;
14797;SDS011;7490;63.708;20.368;2024-03-02T09:45:32;61.90;;;13.60;;
14797;SDS011;7490;63.708;20.368;2024-03-02T09:47:59;45.17;;;12.53;;
14797;SDS011;7490;63.708;20.368;2024-03-02T09:50:25;51.83;;;12.27;;
14797;SDS011;7490;63.708;20.368;2024-03-02T09:52:53;59.10;;;13.37;;
14797;SDS011;7490;63.708;20.368;2024-03-02T09:55:19;51.93;;;12.73;;
14797;SDS011;7490;63.708;20.368;2024-03-02T09:57:49;43.37;;;12.57;;
14797;SDS011;7490;63.708;20.368;2024-03-02T10:00:15;46.00;;;11.87;;
14797;SDS011;7490;63.708;20.368;2024-03-02T10:02:43;49.77;;;12.67;;
14797;SDS011;7490;63.708;20.368;2024-03-02T10:05:09;45.57;;;12.93;;
14797;SDS011;7490;63.708;20.368;2024-03-02T10:07:37;48.50;;;13.30;;
14797;SDS011;7490;63.708;20.368;2024-03-02T10:10:20;46.10;;;13.47;;
14797;SDS011;7490;63.708;20.368;2024-03-02T10:13:03;38.97;;;11.97;;
14797;SDS011;7490;63.708;20.368;2024-03-02T10:15:31;49.73;;;12.60;;
14797;SDS011;7490;63.708;20.368;2024-03-02T10:17:57;54.83;;;13.20;;
14797;SDS011;7490;63.708;20.368;2024-03-02T10:20:24;49.80;;;13.17;;
14797;SDS011;7490;63.708;20.368;2024-03-02T10:22:51;52.07;;;13.80;;
14797;SDS011;7490;63.708;20.368;2024-03-02T10:28:06;62.53;;;13.27;;
14797;SDS011;7490;63.708;20.368;2024-03-02T10:30:40;53.77;;;13.73;;
14797;SDS011;7490;63.708;20.368;2024-03-02T10:33:06;60.30;;;13.77;;
14797;SDS011;7490;63.708;20.368;2024-03-02T10:35:37;55.60;;;14.17;;
14797;SDS011;7490;63.708;20.368;2024-03-02T10:38:04;49.13;;;13.93;;
14797;SDS011;7490;63.708;20.368;2024-03-02T10:40:34;59.67;;;14.10;;
14797;SDS011;7490;63.708;20.368;2024-03-02T10:43:03;71.63;;;13.93;;
14797;SDS011;7490;63.708;20.368;2024-03-02T10:45:30;58.27;;;13.37;;
14797;SDS011;7490;63.708;20.368;2024-03-02T10:47:56;68.83;;;15.30;;
14797;SDS011;7490;63.708;20.368;2024-03-02T10:50:25;65.17;;;14.53;;
14797;SDS011;7490;63.708;20.368;2024-03-02T10:52:53;65.43;;;14.53;;
14797;SDS011;7490;63.708;20.368;2024-03-02T10:55:19;49.90;;;13.70;;
14797;SDS011;7490;63.708;20.368;2024-03-02T10:57:51;54.07;;;13.33;;
14797;SDS011;7490;63.708;20.368;2024-03-02T11:00:30;68.63;;;13.33;;
14797;SDS011;7490;63.708;20.368;2024-03-02T11:03:04;68.30;;;14.10;;
14797;SDS011;7490;63.708;20.368;2024-03-02T11:05:44;61.83;;;13.63;;
14797;SDS011;7490;63.708;20.368;2024-03-02T11:08:14;61.97;;;14.10;;
14797;SDS011;7490;63.708;20.368;2024-03-02T11:13:32;54.43;;;14.80;;
14797;SDS011;7490;63.708;20.368;2024-03-02T11:16:04;45.43;;;12.40;;
14797;SDS011;7490;63.708;20.368;2024-03-02T11:18:35;58.57;;;13.37;;
14797;SDS011;7490;63.708;20.368;2024-03-02T11:21:02;60.70;;;14.57;;
14797;SDS011;7490;63.708;20.368;2024-03-02T11:23:34;45.73;;;13.90;;
14797;SDS011;7490;63.708;20.368;2024-03-02T11:26:37;55.43;;;14.27;;
14797;SDS011;7490;63.708;20.368;2024-03-02T11:29:06;48.40;;;12.87;;
14797;SDS011;7490;63.708;20.368;2024-03-02T11:34:38;48.40;;;12.97;;
14797;SDS011;7490;63.708;20.368;2024-03-02T11:37:10;45.87;;;13.47;;
14797;SDS011;7490;63.708;20.368;2024-03-02T11:39:37;43.90;;;13.00;;
14797;SDS011;7490;63.708;20.368;2024-03-02T11:42:07;46.53;;;12.83;;
14797;SDS011;7490;63.708;20.368;2024-03-02T11:44:42;66.30;;;14.33;;
14797;SDS011;7490;63.708;20.368;2024-03-02T11:47:10;60.57;;;14.23;;
14797;SDS011;7490;63.708;20.368;2024-03-02T11:49:44;31.43;;;9.80;;
14797;SDS011;7490;63.708;20.368;2024-03-02T11:52:17;59.77;;;13.37;;
14797;SDS011;7490;63.708;20.368;2024-03-02T11:54:47;45.77;;;12.13;;
14797;SDS011;7490;63.708;20.368;2024-03-02T11:57:20;74.17;;;15.63;;
14797;SDS011;7490;63.708;20.368;2024-03-02T11:59:52;42.27;;;11.43;;
14797;SDS011;7490;63.708;20.368;2024-03-02T12:02:19;42.33;;;11.47;;
14797;SDS011;7490;63.708;20.368;2024-03-02T12:04:49;58.63;;;14.20;;
14797;SDS011;7490;63.708;20.368;2024-03-02T12:07:22;50.17;;;12.97;;
14797;SDS011;7490;63.708;20.368;2024-03-02T12:10:01;55.40;;;13.23;;
14797;SDS011;7490;63.708;20.368;2024-03-02T12:12:28;60.63;;;13.37;;
14797;SDS011;7490;63.708;20.368;2024-03-02T12:14:56;63.63;;;13.23;;
14797;SDS011;7490;63.708;20.368;2024-03-02T12:17:25;52.07;;;12.90;;
14797;SDS011;7490;63.708;20.368;2024-03-02T12:19:51;55.00;;;13.80;;
14797;SDS011;7490;63.708;20.368;2024-03-02T12:22:18;51.57;;;12.83;;
14797;SDS011;7490;63.708;20.368;2024-03-02T12:24:43;59.30;;;13.07;;
14797;SDS011;7490;63.708;20.368;2024-03-02T12:27:13;45.70;;;13.43;;
14797;SDS011;7490;63.708;20.368;2024-03-02T12:29:40;69.77;;;14.77;;
14797;SDS011;7490;63.708;20.368;2024-03-02T12:32:06;63.60;;;13.97;;
14797;SDS011;7490;63.708;20.368;2024-03-02T12:34:33;56.10;;;14.37;;
14797;SDS011;7490;63.708;20.368;2024-03-02T12:36:59;67.63;;;14.77;;
14797;SDS011;7490;63.708;20.368;2024-03-02T12:39:25;66.37;;;14.53;;
14797;SDS011;7490;63.708;20.368;2024-03-02T12:41:52;50.33;;;14.10;;
14797;SDS011;7490;63.708;20.368;2024-03-02T12:44:19;54.50;;;14.10;;
14797;SDS011;7490;63.708;20.368;2024-03-02T12:46:45;69.10;;;14.77;;
14797;SDS011;7490;63.708;20.368;2024-03-02T12:49:12;56.67;;;14.57;;
14797;SDS011;7490;63.708;20.368;2024-03-02T12:51:41;44.03;;;13.57;;
14797;SDS011;7490;63.708;20.368;2024-03-02T12:54:07;43.30;;;12.40;;
14797;SDS011;7490;63.708;20.368;2024-03-02T12:56:34;66.20;;;14.53;;
14797;SDS011;7490;63.708;20.368;2024-03-02T12:59:00;57.73;;;15.43;;
14797;SDS011;7490;63.708;20.368;2024-03-02T13:01:26;52.60;;;13.50;;
14797;SDS011;7490;63.708;20.368;2024-03-02T13:03:52;47.93;;;13.37;;
14797;SDS011;7490;63.708;20.368;2024-03-02T13:06:22;61.07;;;14.67;;
14797;SDS011;7490;63.708;20.368;2024-03-02T13:08:48;46.90;;;13.77;;
14797;SDS011;7490;63.708;20.368;2024-03-02T13:11:15;78.50;;;16.63;;
14797;SDS011;7490;63.708;20.368;2024-03-02T13:13:41;55.90;;;15.77;;
14797;SDS011;7490;63.708;20.368;2024-03-02T13:16:08;58.37;;;15.70;;
14797;SDS011;7490;63.708;20.368;2024-03-02T13:18:35;59.67;;;15.53;;
14797;SDS011;7490;63.708;20.368;2024-03-02T13:21:01;48.60;;;14.23;;
14797;SDS011;7490;63.708;20.368;2024-03-02T13:23:27;56.47;;;14.80;;
14797;SDS011;7490;63.708;20.368;2024-03-02T13:25:55;47.80;;;14.97;;
14797;SDS011;7490;63.708;20.368;2024-03-02T13:28:23;47.43;;;14.20;;
14797;SDS011;7490;63.708;20.368;2024-03-02T13:30:49;46.17;;;13.87;;
14797;SDS011;7490;63.708;20.368;2024-03-02T13:33:14;47.53;;;14.67;;
14797;SDS011;7490;63.708;20.368;2024-03-02T13:35:40;44.13;;;14.20;;
14797;SDS011;7490;63.708;20.368;2024-03-02T13:38:06;41.80;;;14.37;;
14797;SDS011;7490;63.708;20.368;2024-03-02T13:40:31;37.57;;;13.50;;
14797;SDS011;7490;63.708;20.368;2024-03-02T13:43:00;42.00;;;13.90;;
14797;SDS011;7490;63.708;20.368;2024-03-02T13:45:27;41.93;;;13.80;;
14797;SDS011;7490;63.708;20.368;2024-03-02T13:47:53;40.33;;;14.90;;
14797;SDS011;7490;63.708;20.368;2024-03-02T13:50:19;43.67;;;14.40;;
14797;SDS011;7490;63.708;20.368;2024-03-02T13:52:45;54.20;;;15.33;;
14797;SDS011;7490;63.708;20.368;2024-03-02T13:55:10;49.03;;;14.73;;
14797;SDS011;7490;63.708;20.368;2024-03-02T13:57:36;58.30;;;15.83;;
14797;SDS011;7490;63.708;20.368;2024-03-02T14:00:02;56.80;;;14.30;;
14797;SDS011;7490;63.708;20.368;2024-03-02T14:02:35;55.63;;;15.10;;
14797;SDS011;7490;63.708;20.368;2024-03-02T14:05:01;59.10;;;15.37;;
14797;SDS011;7490;63.708;20.368;2024-03-02T14:07:27;96.77;;;17.00;;
14797;SDS011;7490;63.708;20.368;2024-03-02T14:09:53;88.37;;;17.50;;
14797;SDS011;7490;63.708;20.368;2024-03-02T14:12:18;112.60;;;18.67;;
14797;SDS011;7490;63.708;20.368;2024-03-02T14:14:44;76.97;;;16.03;;
14797;SDS011;7490;63.708;20.368;2024-03-02T14:17:10;85.03;;;15.93;;
14797;SDS011;7490;63.708;20.368;2024-03-02T14:19:39;114.20;;;17.87;;
14797;SDS011;7490;63.708;20.368;2024-03-02T14:22:05;130.87;;;19.00;;
14797;SDS011;7490;63.708;20.368;2024-03-02T14:24:31;81.73;;;16.23;;
14797;SDS011;7490;63.708;20.368;2024-03-02T14:26:56;146.13;;;18.93;;
14797;SDS011;7490;63.708;20.368;2024-03-02T14:29:24;138.73;;;19.53;;
14797;SDS011;7490;63.708;20.368;2024-03-02T14:31:50;107.77;;;16.67;;
14797;SDS011;7490;63.708;20.368;2024-03-02T14:34:15;104.67;;;17.67;;